sensor_id;sensor_type;location;lat;lon;timestamp;pressure;altitude;pressure_sealevel;temperature;humidity
37824;BME280;23667;43.246;26.576;2022-12-18T00:00:42;100197.84;;;9.19;100.00
37824;BME280;23667;43.246;26.576;2022-12-18T00:03:07;100208.19;;;9.22;100.00
37824;BME280;23667;43.246;26.576;2022-12-18T00:05:33;100212.47;;;9.29;100.00
37824;BME280;23667;43.246;26.576;2022-12-18T00:07:58;100220.19;;;9.35;100.00
37824;BME280;23667;43.246;26.576;2022-12-18T00:10:24;100226.13;;;9.43;100.00
37824;BME280;23667;43.246;26.576;2022-12-18T00:12:49;100228.78;;;9.42;100.00
37824;BME280;23667;43.246;26.576;2022-12-18T00:15:15;100224.38;;;9.45;100.00
37824;BME280;23667;43.246;26.576;2022-12-18T00:17:40;100231.41;;;9.39;100.00
37824;BME280;23667;43.246;26.576;2022-12-18T00:20:06;100231.41;;;9.37;100.00
37824;BME280;23667;43.246;26.576;2022-12-18T00:22:32;100239.25;;;9.36;100.00
37824;BME280;23667;43.246;26.576;2022-12-18T00:24:57;100248.91;;;9.27;100.00
37824;BME280;23667;43.246;26.576;2022-12-18T00:27:23;100239.38;;;9.25;100.00
37824;BME280;23667;43.246;26.576;2022-12-18T00:29:48;100245.53;;;9.19;100.00
37824;BME280;23667;43.246;26.576;2022-12-18T00:32:14;100244.78;;;9.09;100.00
37824;BME280;23667;43.246;26.576;2022-12-18T00:34:39;100251.69;;;9.10;100.00
37824;BME280;23667;43.246;26.576;2022-12-18T00:37:05;100254.34;;;9.07;100.00
37824;BME280;23667;43.246;26.576;2022-12-18T00:39:31;100254.22;;;9.18;100.00
37824;BME280;23667;43.246;26.576;2022-12-18T00:41:56;100269.00;;;9.16;100.00
37824;BME280;23667;43.246;26.576;2022-12-18T00:44:40;100264.75;;;9.07;100.00
37824;BME280;23667;43.246;26.576;2022-12-18T00:47:06;100265.56;;;9.13;100.00
37824;BME280;23667;43.246;26.576;2022-12-18T00:49:31;100267.31;;;9.12;100.00
37824;BME280;23667;43.246;26.576;2022-12-18T00:51:57;100256.09;;;9.07;100.00
37824;BME280;23667;43.246;26.576;2022-12-18T00:54:22;100262.94;;;9.17;100.00
37824;BME280;23667;43.246;26.576;2022-12-18T00:56:48;100259.53;;;9.09;100.00
37824;BME280;23667;43.246;26.576;2022-12-18T00:59:13;100252.47;;;9.20;100.00
37824;BME280;23667;43.246;26.576;2022-12-18T01:01:39;100247.22;;;9.23;100.00
37824;BME280;23667;43.246;26.576;2022-12-18T01:04:04;100252.47;;;9.20;100.00
37824;BME280;23667;43.246;26.576;2022-12-18T01:06:29;100252.56;;;9.14;100.00
37824;BME280;23667;43.246;26.576;2022-12-18T01:08:55;100245.50;;;9.24;100.00
37824;BME280;23667;43.246;26.576;2022-12-18T01:11:22;100245.53;;;9.19;100.00
37824;BME280;23667;43.246;26.576;2022-12-18T01:13:48;100247.31;;;9.17;100.00
37824;BME280;23667;43.246;26.576;2022-12-18T01:16:15;100249.91;;;9.16;100.00
37824;BME280;23667;43.246;26.576;2022-12-18T01:18:41;100262.03;;;9.17;100.00
37824;BME280;23667;43.246;26.576;2022-12-18T01:21:08;100264.69;;;9.14;100.00
37824;BME280;23667;43.246;26.576;2022-12-18T01:23:34;100269.88;;;9.14;100.00
37824;BME280;23667;43.246;26.576;2022-12-18T01:26:12;100276.72;;;9.22;100.00
37824;BME280;23667;43.246;26.576;2022-12-18T01:28:38;100267.19;;;9.21;100.00
37824;BME280;23667;43.246;26.576;2022-12-18T01:31:22;100272.66;;;8.98;100.00
37824;BME280;23667;43.246;26.576;2022-12-18T01:33:49;100278.84;;;8.88;100.00
37824;BME280;23667;43.246;26.576;2022-12-18T01:36:27;100284.75;;;9.05;100.00
37824;BME280;23667;43.246;26.576;2022-12-18T01:38:53;100280.50;;;8.95;100.00
37824;BME280;23667;43.246;26.576;2022-12-18T01:41:24;100289.16;;;8.96;100.00
37824;BME280;23667;43.246;26.576;2022-12-18T01:43:57;100290.16;;;8.84;100.00
37824;BME280;23667;43.246;26.576;2022-12-18T01:46:24;100290.13;;;8.87;100.00
37824;BME280;23667;43.246;26.576;2022-12-18T01:48:55;100293.66;;;8.78;100.00
37824;BME280;23667;43.246;26.576;2022-12-18T01:51:22;100291.06;;;8.80;100.00
37824;BME280;23667;43.246;26.576;2022-12-18T01:53:48;100296.25;;;8.84;100.00
37824;BME280;23667;43.246;26.576;2022-12-18T01:56:19;100298.84;;;8.81;100.00
37824;BME280;23667;43.246;26.576;2022-12-18T01:58:58;100297.44;;;8.47;100.00
37824;BME280;23667;43.246;26.576;2022-12-18T02:01:25;100298.34;;;8.41;100.00
37824;BME280;23667;43.246;26.576;2022-12-18T02:03:51;100307.03;;;8.38;100.00
37824;BME280;23667;43.246;26.576;2022-12-18T02:06:31;100316.59;;;8.32;100.00
37824;BME280;23667;43.246;26.576;2022-12-18T02:09:18;100310.47;;;8.36;100.00
37824;BME280;23667;43.246;26.576;2022-12-18T02:17:19;100314.72;;;8.52;100.00
37824;BME280;23667;43.246;26.576;2022-12-18T02:22:32;100336.47;;;8.36;100.00
37824;BME280;23667;43.246;26.576;2022-12-18T02:25:11;100325.19;;;8.43;100.00
37824;BME280;23667;43.246;26.576;2022-12-18T02:27:39;100331.31;;;8.34;100.00
37824;BME280;23667;43.246;26.576;2022-12-18T02:30:07;100324.41;;;8.27;100.00
37824;BME280;23667;43.246;26.576;2022-12-18T02:32:42;100325.19;;;8.41;100.00
37824;BME280;23667;43.246;26.576;2022-12-18T02:35:13;100333.03;;;8.38;100.00
37824;BME280;23667;43.246;26.576;2022-12-18T02:37:42;100334.78;;;8.30;100.00
37824;BME280;23667;43.246;26.576;2022-12-18T02:40:10;100327.03;;;8.21;100.00
37824;BME280;23667;43.246;26.576;2022-12-18T02:42:37;100325.38;;;8.14;100.00
37824;BME280;23667;43.246;26.576;2022-12-18T02:45:03;100334.91;;;8.12;100.00
37824;BME280;23667;43.246;26.576;2022-12-18T02:47:31;100337.53;;;8.06;100.00
37824;BME280;23667;43.246;26.576;2022-12-18T02:58:05;100348.88;;;7.89;100.00
37824;BME280;23667;43.246;26.576;2022-12-18T03:03:06;100345.47;;;7.83;100.00
37824;BME280;23667;43.246;26.576;2022-12-18T03:05:48;100348.03;;;7.86;100.00
37824;BME280;23667;43.246;26.576;2022-12-18T03:08:22;100355.03;;;7.71;100.00
37824;BME280;23667;43.246;26.576;2022-12-18T03:11:02;100360.25;;;7.67;100.00
37824;BME280;23667;43.246;26.576;2022-12-18T03:13:32;100362.88;;;7.64;100.00
37824;BME280;23667;43.246;26.576;2022-12-18T03:16:00;100368.91;;;7.63;100.00
37824;BME280;23667;43.246;26.576;2022-12-18T03:18:32;100373.28;;;7.51;100.00
37824;BME280;23667;43.246;26.576;2022-12-18T03:21:01;100373.28;;;7.50;100.00
37824;BME280;23667;43.246;26.576;2022-12-18T03:23:33;100382.84;;;7.37;100.00
37824;BME280;23667;43.246;26.576;2022-12-18T03:26:05;100382.88;;;7.26;100.00
37824;BME280;23667;43.246;26.576;2022-12-18T03:28:34;100387.19;;;7.15;100.00
37824;BME280;23667;43.246;26.576;2022-12-18T03:31:03;100387.22;;;7.11;100.00
37824;BME280;23667;43.246;26.576;2022-12-18T03:33:37;100389.84;;;7.01;100.00
37824;BME280;23667;43.246;26.576;2022-12-18T03:36:05;100386.38;;;6.92;100.00
37824;BME280;23667;43.246;26.576;2022-12-18T03:38:30;100397.59;;;6.86;100.00
37824;BME280;23667;43.246;26.576;2022-12-18T03:40:58;100390.69;;;6.85;100.00
37824;BME280;23667;43.246;26.576;2022-12-18T03:43:34;100388.13;;;6.80;100.00
37824;BME280;23667;43.246;26.576;2022-12-18T03:46:12;100395.88;;;6.76;100.00
37824;BME280;23667;43.246;26.576;2022-12-18T03:48:51;100397.63;;;6.72;100.00
37824;BME280;23667;43.246;26.576;2022-12-18T03:51:24;100407.97;;;6.71;100.00
37824;BME280;23667;43.246;26.576;2022-12-18T03:53:58;100409.72;;;6.76;100.00
37824;BME280;23667;43.246;26.576;2022-12-18T03:56:26;100406.25;;;6.71;100.00
37824;BME280;23667;43.246;26.576;2022-12-18T03:58:55;100426.13;;;6.61;100.00
37824;BME280;23667;43.246;26.576;2022-12-18T04:01:28;100432.16;;;6.60;100.00
37824;BME280;23667;43.246;26.576;2022-12-18T04:03:55;100451.19;;;6.66;100.00
37824;BME280;23667;43.246;26.576;2022-12-18T04:06:22;100456.34;;;6.56;100.00
37824;BME280;23667;43.246;26.576;2022-12-18T04:08:48;100459.81;;;6.57;100.00
37824;BME280;23667;43.246;26.576;2022-12-18T04:11:15;100467.56;;;6.61;100.00
37824;BME280;23667;43.246;26.576;2022-12-18T04:13:42;100474.53;;;6.66;100.00
37824;BME280;23667;43.246;26.576;2022-12-18T04:16:08;100476.22;;;6.56;100.00
37824;BME280;23667;43.246;26.576;2022-12-18T04:18:34;100487.47;;;6.64;100.00
37824;BME280;23667;43.246;26.576;2022-12-18T04:21:00;100484.88;;;6.63;100.00
37824;BME280;23667;43.246;26.576;2022-12-18T04:23:26;100493.47;;;6.49;100.00
37824;BME280;23667;43.246;26.576;2022-12-18T04:25:52;100492.59;;;6.40;100.00
37824;BME280;23667;43.246;26.576;2022-12-18T04:28:17;100495.16;;;6.38;100.00
37824;BME280;23667;43.246;26.576;2022-12-18T04:30:43;100502.94;;;6.40;100.00
37824;BME280;23667;43.246;26.576;2022-12-18T04:33:12;100504.66;;;6.34;100.00
37824;BME280;23667;43.246;26.576;2022-12-18T04:35:39;100502.03;;;6.25;100.00
37824;BME280;23667;43.246;26.576;2022-12-18T04:38:06;100506.28;;;6.06;100.00
37824;BME280;23667;43.246;26.576;2022-12-18T04:40:34;100510.53;;;6.00;100.00
37824;BME280;23667;43.246;26.576;2022-12-18T04:43:00;100518.22;;;5.87;100.00
37824;BME280;23667;43.246;26.576;2022-12-18T04:45:26;100517.31;;;5.82;100.00
37824;BME280;23667;43.246;26.576;2022-12-18T04:47:51;100525.88;;;5.70;100.00
37824;BME280;23667;43.246;26.576;2022-12-18T04:50:17;100525.84;;;5.66;100.00
37824;BME280;23667;43.246;26.576;2022-12-18T04:52:42;100533.59;;;5.64;100.00
37824;BME280;23667;43.246;26.576;2022-12-18T04:55:08;100537.09;;;5.73;100.00
37824;BME280;23667;43.246;26.576;2022-12-18T04:57:33;100535.34;;;5.70;100.00
37824;BME280;23667;43.246;26.576;2022-12-18T04:59:59;100529.31;;;5.68;100.00
37824;BME280;23667;43.246;26.576;2022-12-18T05:02:24;100541.38;;;5.67;100.00
37824;BME280;23667;43.246;26.576;2022-12-18T05:04:50;100542.25;;;5.65;100.00
37824;BME280;23667;43.246;26.576;2022-12-18T05:07:15;100527.63;;;5.75;100.00
37824;BME280;23667;43.246;26.576;2022-12-18T05:09:40;100535.47;;;5.87;100.00
37824;BME280;23667;43.246;26.576;2022-12-18T05:12:06;100540.75;;;5.95;100.00
37824;BME280;23667;43.246;26.576;2022-12-18T05:14:31;100547.66;;;6.03;100.00
37824;BME280;23667;43.246;26.576;2022-12-18T05:16:57;100556.34;;;6.08;100.00
37824;BME280;23667;43.246;26.576;2022-12-18T05:19:22;100557.16;;;6.00;100.00
37824;BME280;23667;43.246;26.576;2022-12-18T05:21:48;100557.19;;;6.07;100.00
37824;BME280;23667;43.246;26.576;2022-12-18T05:24:13;100561.47;;;6.02;100.00
37824;BME280;23667;43.246;26.576;2022-12-18T05:26:39;100570.09;;;5.95;100.00
37824;BME280;23667;43.246;26.576;2022-12-18T05:29:04;100569.09;;;5.82;100.00
37824;BME280;23667;43.246;26.576;2022-12-18T05:31:30;100582.03;;;5.81;100.00
37824;BME280;23667;43.246;26.576;2022-12-18T05:33:55;100572.47;;;5.72;100.00
37824;BME280;23667;43.246;26.576;2022-12-18T05:36:21;100569.03;;;5.72;100.00
37824;BME280;23667;43.246;26.576;2022-12-18T05:38:46;100580.19;;;5.67;100.00
37824;BME280;23667;43.246;26.576;2022-12-18T05:41:11;100584.50;;;5.64;100.00
37824;BME280;23667;43.246;26.576;2022-12-18T05:43:38;100590.56;;;5.66;100.00
37824;BME280;23667;43.246;26.576;2022-12-18T05:46:12;100599.19;;;5.69;100.00
37824;BME280;23667;43.246;26.576;2022-12-18T05:48:37;100601.84;;;5.74;100.00
37824;BME280;23667;43.246;26.576;2022-12-18T05:51:11;100612.22;;;5.82;100.00
37824;BME280;23667;43.246;26.576;2022-12-18T05:53:37;100609.72;;;5.92;100.00
37824;BME280;23667;43.246;26.576;2022-12-18T05:56:05;100611.53;;;5.98;100.00
37824;BME280;23667;43.246;26.576;2022-12-18T05:58:32;100621.94;;;6.07;100.00
37824;BME280;23667;43.246;26.576;2022-12-18T06:01:05;100624.53;;;6.09;100.00
37824;BME280;23667;43.246;26.576;2022-12-18T06:03:30;100629.72;;;6.10;100.00
37824;BME280;23667;43.246;26.576;2022-12-18T06:05:56;100641.88;;;6.21;100.00
37824;BME280;23667;43.246;26.576;2022-12-18T06:08:21;100641.94;;;6.28;100.00
37824;BME280;23667;43.246;26.576;2022-12-18T06:10:51;100644.63;;;6.45;100.00
37824;BME280;23667;43.246;26.576;2022-12-18T06:13:18;100635.09;;;6.47;100.00
37824;BME280;23667;43.246;26.576;2022-12-18T06:15:43;100637.72;;;6.46;100.00
37824;BME280;23667;43.246;26.576;2022-12-18T06:18:08;100645.47;;;6.44;100.00
37824;BME280;23667;43.246;26.576;2022-12-18T06:20:34;100648.81;;;6.25;100.00
37824;BME280;23667;43.246;26.576;2022-12-18T06:23:01;100662.56;;;6.18;100.00
37824;BME280;23667;43.246;26.576;2022-12-18T06:25:27;100672.06;;;6.12;100.00
37824;BME280;23667;43.246;26.576;2022-12-18T06:27:52;100679.88;;;6.22;100.00
37824;BME280;23667;43.246;26.576;2022-12-18T06:30:19;100686.88;;;6.35;100.00
37824;BME280;23667;43.246;26.576;2022-12-18T06:32:45;100679.16;;;6.44;100.00
37824;BME280;23667;43.246;26.576;2022-12-18T06:35:10;100670.41;;;6.30;100.00
37824;BME280;23667;43.246;26.576;2022-12-18T06:37:36;100685.06;;;6.23;100.00
37824;BME280;23667;43.246;26.576;2022-12-18T06:40:01;100681.59;;;6.23;100.00
37824;BME280;23667;43.246;26.576;2022-12-18T06:42:28;100688.56;;;6.33;100.00
37824;BME280;23667;43.246;26.576;2022-12-18T06:44:53;100696.38;;;6.34;100.00
37824;BME280;23667;43.246;26.576;2022-12-18T06:47:19;100710.13;;;6.24;100.00
37824;BME280;23667;43.246;26.576;2022-12-18T06:49:44;100711.81;;;6.24;100.00
37824;BME280;23667;43.246;26.576;2022-12-18T06:52:10;100707.63;;;6.41;100.00
37824;BME280;23667;43.246;26.576;2022-12-18T06:54:35;100712.78;;;6.33;100.00
37824;BME280;23667;43.246;26.576;2022-12-18T06:57:01;100716.19;;;6.32;100.00
37824;BME280;23667;43.246;26.576;2022-12-18T06:59:26;100724.84;;;6.33;100.00
37824;BME280;23667;43.246;26.576;2022-12-18T07:01:51;100724.88;;;6.34;100.00
37824;BME280;23667;43.246;26.576;2022-12-18T07:04:17;100728.34;;;6.36;100.00
37824;BME280;23667;43.246;26.576;2022-12-18T07:06:42;100722.34;;;6.45;100.00
37824;BME280;23667;43.246;26.576;2022-12-18T07:09:08;100742.38;;;6.69;100.00
37824;BME280;23667;43.246;26.576;2022-12-18T07:11:33;100738.84;;;6.59;100.00
37824;BME280;23667;43.246;26.576;2022-12-18T07:13:59;100740.50;;;6.50;100.00
37824;BME280;23667;43.246;26.576;2022-12-18T07:16:25;100738.75;;;6.43;100.00
37824;BME280;23667;43.246;26.576;2022-12-18T07:18:51;100743.19;;;6.65;100.00
37824;BME280;23667;43.246;26.576;2022-12-18T07:21:18;100744.22;;;6.90;100.00
37824;BME280;23667;43.246;26.576;2022-12-18T07:23:44;100751.09;;;6.83;100.00
37824;BME280;23667;43.246;26.576;2022-12-18T07:26:14;100751.19;;;6.99;100.00
37824;BME280;23667;43.246;26.576;2022-12-18T07:28:41;100760.56;;;6.83;100.00
37824;BME280;23667;43.246;26.576;2022-12-18T07:31:09;100757.13;;;6.82;100.00
37824;BME280;23667;43.246;26.576;2022-12-18T07:33:36;100764.00;;;6.76;100.00
37824;BME280;23667;43.246;26.576;2022-12-18T07:36:03;100774.25;;;6.57;100.00
37824;BME280;23667;43.246;26.576;2022-12-18T07:38:29;100768.34;;;6.75;100.00
37824;BME280;23667;43.246;26.576;2022-12-18T07:41:07;100772.78;;;6.96;100.00
37824;BME280;23667;43.246;26.576;2022-12-18T07:43:33;100768.44;;;6.97;100.00
37824;BME280;23667;43.246;26.576;2022-12-18T07:45:59;100779.63;;;6.85;100.00
37824;BME280;23667;43.246;26.576;2022-12-18T07:48:24;100784.03;;;6.98;100.00
37824;BME280;23667;43.246;26.576;2022-12-18T07:50:50;100779.72;;;7.10;100.00
37824;BME280;23667;43.246;26.576;2022-12-18T07:53:15;100787.47;;;6.99;100.00
37824;BME280;23667;43.246;26.576;2022-12-18T07:55:41;100793.41;;;6.79;100.00
37824;BME280;23667;43.246;26.576;2022-12-18T07:58:07;100797.03;;;7.04;100.00
37824;BME280;23667;43.246;26.576;2022-12-18T08:00:34;100786.56;;;6.89;100.00
37824;BME280;23667;43.246;26.576;2022-12-18T08:03:00;100787.47;;;6.99;100.00
37824;BME280;23667;43.246;26.576;2022-12-18T08:05:26;100791.91;;;7.20;100.00
37824;BME280;23667;43.246;26.576;2022-12-18T08:07:51;100800.25;;;6.70;100.00
37824;BME280;23667;43.246;26.576;2022-12-18T08:10:17;100801.09;;;6.67;100.00
37824;BME280;23667;43.246;26.576;2022-12-18T08:12:43;100798.53;;;6.66;100.00
37824;BME280;23667;43.246;26.576;2022-12-18T08:15:08;100800.47;;;7.06;100.00
37824;BME280;23667;43.246;26.576;2022-12-18T08:17:34;100804.66;;;6.81;100.00
37824;BME280;23667;43.246;26.576;2022-12-18T08:20:00;100816.84;;;6.95;100.00
37824;BME280;23667;43.246;26.576;2022-12-18T08:22:25;100822.03;;;6.98;100.00
37824;BME280;23667;43.246;26.576;2022-12-18T08:24:51;100824.63;;;6.98;100.00
37824;BME280;23667;43.246;26.576;2022-12-18T08:27:16;100823.84;;;7.13;100.00
37824;BME280;23667;43.246;26.576;2022-12-18T08:29:41;100823.69;;;6.82;100.00
37824;BME280;23667;43.246;26.576;2022-12-18T08:32:07;100826.34;;;6.97;100.00
37824;BME280;23667;43.246;26.576;2022-12-18T08:34:32;100831.56;;;6.97;100.00
37824;BME280;23667;43.246;26.576;2022-12-18T08:36:58;100827.34;;;7.13;100.00
37824;BME280;23667;43.246;26.576;2022-12-18T08:39:23;100835.94;;;7.07;100.00
37824;BME280;23667;43.246;26.576;2022-12-18T08:41:49;100827.31;;;7.07;100.00
37824;BME280;23667;43.246;26.576;2022-12-18T08:44:33;100830.75;;;7.06;100.00
37824;BME280;23667;43.246;26.576;2022-12-18T08:47:05;100829.00;;;7.02;100.00
37824;BME280;23667;43.246;26.576;2022-12-18T08:49:31;100833.34;;;7.07;100.00
37824;BME280;23667;43.246;26.576;2022-12-18T08:51:57;100829.06;;;7.14;100.00
37824;BME280;23667;43.246;26.576;2022-12-18T08:54:23;100821.22;;;7.02;100.00
37824;BME280;23667;43.246;26.576;2022-12-18T08:56:49;100823.97;;;7.36;100.00
37824;BME280;23667;43.246;26.576;2022-12-18T08:59:18;100815.44;;;7.61;100.00
37824;BME280;23667;43.246;26.576;2022-12-18T09:01:47;100818.03;;;7.69;100.00
37824;BME280;23667;43.246;26.576;2022-12-18T09:04:13;100826.72;;;7.83;100.00
37824;BME280;23667;43.246;26.576;2022-12-18T09:06:39;100827.53;;;7.56;100.00
37824;BME280;23667;43.246;26.576;2022-12-18T09:09:06;100825.88;;;7.75;100.00
37824;BME280;23667;43.246;26.576;2022-12-18T09:11:32;100834.59;;;8.06;100.00
37824;BME280;23667;43.246;26.576;2022-12-18T09:13:59;100826.81;;;8.20;100.00
37824;BME280;23667;43.246;26.576;2022-12-18T09:16:26;100832.00;;;8.28;100.00
37824;BME280;23667;43.246;26.576;2022-12-18T09:18:54;100825.13;;;8.39;100.00
37824;BME280;23667;43.246;26.576;2022-12-18T09:21:26;100837.25;;;8.63;100.00
37824;BME280;23667;43.246;26.576;2022-12-18T09:23:52;100848.53;;;8.62;100.00
37824;BME280;23667;43.246;26.576;2022-12-18T09:26:18;100843.31;;;8.48;100.00
37824;BME280;23667;43.246;26.576;2022-12-18T09:28:44;100843.31;;;8.86;100.00
37824;BME280;23667;43.246;26.576;2022-12-18T09:31:11;100845.84;;;8.22;100.00
37824;BME280;23667;43.246;26.576;2022-12-18T09:33:37;100840.59;;;7.85;100.00
37824;BME280;23667;43.246;26.576;2022-12-18T09:36:05;100837.13;;;7.83;100.00
37824;BME280;23667;43.246;26.576;2022-12-18T09:38:31;100839.72;;;7.86;100.00
37824;BME280;23667;43.246;26.576;2022-12-18T09:43:48;100831.06;;;7.75;100.00
37824;BME280;23667;43.246;26.576;2022-12-18T09:46:34;100835.34;;;7.65;100.00
37824;BME280;23667;43.246;26.576;2022-12-18T09:49:06;100834.41;;;7.46;100.00
37824;BME280;23667;43.246;26.576;2022-12-18T09:51:46;100838.78;;;7.63;100.00
37824;BME280;23667;43.246;26.576;2022-12-18T09:54:23;100829.28;;;7.68;100.00
37824;BME280;23667;43.246;26.576;2022-12-18T09:56:51;100827.59;;;7.78;100.00
37824;BME280;23667;43.246;26.576;2022-12-18T09:59:35;100835.41;;;7.79;100.00
37824;BME280;23667;43.246;26.576;2022-12-18T10:02:14;100837.94;;;7.67;100.00
37824;BME280;23667;43.246;26.576;2022-12-18T10:04:40;100831.88;;;7.68;100.00
37824;BME280;23667;43.246;26.576;2022-12-18T10:07:19;100836.19;;;7.66;100.00
37824;BME280;23667;43.246;26.576;2022-12-18T10:13:21;100834.53;;;7.75;100.00
37824;BME280;23667;43.246;26.576;2022-12-18T10:16:12;100838.94;;;8.19;100.00
37824;BME280;23667;43.246;26.576;2022-12-18T10:22:08;100843.84;;;7.29;100.00
37824;BME280;23667;43.246;26.576;2022-12-18T10:27:21;100849.94;;;7.37;100.00
37824;BME280;23667;43.246;26.576;2022-12-18T10:29:47;100844.88;;;7.66;100.00
37824;BME280;23667;43.246;26.576;2022-12-18T10:32:15;100848.09;;;7.15;100.00
37824;BME280;23667;43.246;26.576;2022-12-18T10:34:45;100856.78;;;7.20;100.00
37824;BME280;23667;43.246;26.576;2022-12-18T10:37:19;100844.06;;;7.75;100.00
37824;BME280;23667;43.246;26.576;2022-12-18T10:42:31;100852.69;;;7.69;100.00
37824;BME280;23667;43.246;26.576;2022-12-18T10:45:26;100859.63;;;7.72;100.00
37824;BME280;23667;43.246;26.576;2022-12-18T10:47:52;100864.44;;;6.98;100.00
37824;BME280;23667;43.246;26.576;2022-12-18T10:50:20;100855.94;;;7.25;100.00
37824;BME280;23667;43.246;26.576;2022-12-18T10:52:55;100862.25;;;7.78;100.00
37824;BME280;23667;43.246;26.576;2022-12-18T10:55:20;100868.41;;;8.20;100.00
37824;BME280;23667;43.246;26.576;2022-12-18T10:57:47;100865.72;;;7.88;100.00
37824;BME280;23667;43.246;26.576;2022-12-18T11:00:28;100865.59;;;7.56;100.00
37824;BME280;23667;43.246;26.576;2022-12-18T11:02:55;100863.06;;;7.74;100.00
37824;BME280;23667;43.246;26.576;2022-12-18T11:05:27;100869.22;;;7.99;100.00
37824;BME280;23667;43.246;26.576;2022-12-18T11:07:52;100877.00;;;7.93;100.00
37824;BME280;23667;43.246;26.576;2022-12-18T11:10:26;100882.25;;;8.19;100.00
37824;BME280;23667;43.246;26.576;2022-12-18T11:12:53;100877.84;;;7.92;100.00
37824;BME280;23667;43.246;26.576;2022-12-18T11:15:29;100880.50;;;8.12;100.00
37824;BME280;23667;43.246;26.576;2022-12-18T11:17:55;100875.28;;;8.03;100.00
37824;BME280;23667;43.246;26.576;2022-12-18T11:20:29;100879.59;;;8.04;100.00
37824;BME280;23667;43.246;26.576;2022-12-18T11:23:02;100889.06;;;7.79;100.00
37824;BME280;23667;43.246;26.576;2022-12-18T11:25:30;100883.88;;;7.80;100.00
37824;BME280;23667;43.246;26.576;2022-12-18T11:28:00;100887.84;;;7.15;100.00
37824;BME280;23667;43.246;26.576;2022-12-18T11:30:36;100880.19;;;7.35;100.00
37824;BME280;23667;43.246;26.576;2022-12-18T11:33:15;100894.97;;;7.50;100.00
37824;BME280;23667;43.246;26.576;2022-12-18T11:35:55;100898.28;;;7.20;100.00
37824;BME280;23667;43.246;26.576;2022-12-18T11:38:34;100911.28;;;7.26;100.00
37824;BME280;23667;43.246;26.576;2022-12-18T11:43:35;100901.69;;;7.14;100.00
37824;BME280;23667;43.246;26.576;2022-12-18T11:46:11;100902.53;;;7.12;100.00
37824;BME280;23667;43.246;26.576;2022-12-18T11:49:07;100899.19;;;7.28;100.00
37824;BME280;23667;43.246;26.576;2022-12-18T11:51:42;100902.50;;;7.05;100.00
37824;BME280;23667;43.246;26.576;2022-12-18T11:54:13;100907.84;;;7.30;100.00
37824;BME280;23667;43.246;26.576;2022-12-18T11:56:46;100902.78;;;7.45;100.00
37824;BME280;23667;43.246;26.576;2022-12-18T12:10:08;100913.09;;;7.41;100.00
37824;BME280;23667;43.246;26.576;2022-12-18T12:12:55;100900.03;;;7.24;100.00
37824;BME280;23667;43.246;26.576;2022-12-18T12:21:24;100908.50;;;7.00;100.00
37824;BME280;23667;43.246;26.576;2022-12-18T12:37:55;100908.34;;;6.80;100.00
37824;BME280;23667;43.246;26.576;2022-12-18T12:40:27;100900.47;;;6.68;100.00
37824;BME280;23667;43.246;26.576;2022-12-18T12:43:01;100901.19;;;6.48;100.00
37824;BME280;23667;43.246;26.576;2022-12-18T12:45:55;100911.47;;;6.39;100.00
37824;BME280;23667;43.246;26.576;2022-12-18T12:51:27;100907.94;;;6.34;100.00
37824;BME280;23667;43.246;26.576;2022-12-18T12:53:56;100912.06;;;6.15;100.00
37824;BME280;23667;43.246;26.576;2022-12-18T12:56:26;100917.38;;;6.29;100.00
37824;BME280;23667;43.246;26.576;2022-12-18T13:04:30;100922.81;;;6.53;100.00
37824;BME280;23667;43.246;26.576;2022-12-18T13:07:04;100931.53;;;6.60;100.00
37824;BME280;23667;43.246;26.576;2022-12-18T13:09:32;100933.00;;;6.33;100.00
37824;BME280;23667;43.246;26.576;2022-12-18T13:12:04;100938.25;;;6.43;100.00
37824;BME280;23667;43.246;26.576;2022-12-18T13:14:48;100940.25;;;6.71;100.00
37824;BME280;23667;43.246;26.576;2022-12-18T13:17:29;100950.50;;;6.57;100.00
37824;BME280;23667;43.246;26.576;2022-12-18T13:20:12;100951.34;;;6.55;100.00
37824;BME280;23667;43.246;26.576;2022-12-18T13:22:47;100945.94;;;6.33;100.00
37824;BME280;23667;43.246;26.576;2022-12-18T13:25:38;100955.41;;;6.31;100.00
37824;BME280;23667;43.246;26.576;2022-12-18T13:28:10;100962.44;;;6.43;100.00
37824;BME280;23667;43.246;26.576;2022-12-18T13:38:23;100982.00;;;6.17;100.00
37824;BME280;23667;43.246;26.576;2022-12-18T13:43:23;100988.19;;;6.28;100.00
37824;BME280;23667;43.246;26.576;2022-12-18T13:46:03;101003.78;;;6.32;100.00
37824;BME280;23667;43.246;26.576;2022-12-18T13:48:33;101000.97;;;6.12;100.00
37824;BME280;23667;43.246;26.576;2022-12-18T13:51:07;101001.00;;;6.15;100.00
37824;BME280;23667;43.246;26.576;2022-12-18T13:53:48;100999.25;;;6.14;100.00
37824;BME280;23667;43.246;26.576;2022-12-18T13:56:17;101001.81;;;6.11;100.00
37824;BME280;23667;43.246;26.576;2022-12-18T13:58:43;100993.91;;;6.01;100.00
37824;BME280;23667;43.246;26.576;2022-12-18T14:01:24;101009.34;;;5.93;100.00
37824;BME280;23667;43.246;26.576;2022-12-18T14:03:49;101010.97;;;5.88;100.00
37824;BME280;23667;43.246;26.576;2022-12-18T14:06:16;101013.75;;;5.99;100.00
37824;BME280;23667;43.246;26.576;2022-12-18T14:08:43;101012.84;;;5.95;100.00
37824;BME280;23667;43.246;26.576;2022-12-18T14:11:20;101014.78;;;6.13;100.00
37824;BME280;23667;43.246;26.576;2022-12-18T14:13:47;101023.06;;;5.89;100.00
37824;BME280;23667;43.246;26.576;2022-12-18T14:16:14;101021.19;;;5.77;100.00